Time;durP1;ratioP1;P1;durP2;ratioP2;P2;SDS_P1;SDS_P2;PMS_P1;PMS_P2;Temp;Humidity;BMP_temperature;BMP_pressure;BME280_temperature;BME280_humidity;BME280_pressure;Samples;Min_cycle;Max_cycle;Signal;HPM_P1;HPM_P2
2023/12/19 00:00:35;;;;;;;127.18;58.25;;;16.30;61.20;;;;;;5059961;28;20051;-36
2023/12/19 00:03:01;;;;;;;129.80;58.03;;;16.30;61.30;;;;;;5056381;28;20040;-41
2023/12/19 00:05:27;;;;;;;127.70;57.38;;;16.30;61.30;;;;;;5061158;28;20044;-43
2023/12/19 00:07:52;;;;;;;129.32;58.90;;;16.20;61.50;;;;;;5054402;28;20068;-37
2023/12/19 00:10:18;;;;;;;130.63;58.15;;;16.20;61.30;;;;;;5059797;28;20161;-38
2023/12/19 00:12:44;;;;;;;127.60;58.38;;;16.20;61.50;;;;;;5054885;28;20033;-38
2023/12/19 00:15:09;;;;;;;128.07;58.42;;;16.10;61.50;;;;;;5062258;28;20415;-37
2023/12/19 00:17:36;;;;;;;127.65;57.92;;;16.20;61.50;;;;;;5061606;28;20068;-38
2023/12/19 00:20:01;;;;;;;128.50;57.75;;;16.20;61.50;;;;;;5059407;28;20049;-39
2023/12/19 00:22:27;;;;;;;127.65;58.13;;;16.10;61.50;;;;;;5055061;28;20083;-38
2023/12/19 00:24:53;;;;;;;128.27;58.30;;;16.10;61.60;;;;;;5058344;28;20048;-37
2023/12/19 00:27:18;;;;;;;126.53;57.97;;;16.10;61.60;;;;;;5057734;28;20044;-40
2023/12/19 00:29:44;;;;;;;127.15;58.30;;;16.00;61.60;;;;;;5053061;28;20078;-38
2023/12/19 00:32:09;;;;;;;127.63;58.08;;;16.00;61.70;;;;;;5062228;28;20033;-37
2023/12/19 00:34:35;;;;;;;128.57;58.25;;;16.00;61.70;;;;;;5060659;28;20119;-38
2023/12/19 00:37:01;;;;;;;129.05;58.20;;;16.00;61.60;;;;;;5058067;28;20033;-38
2023/12/19 00:39:27;;;;;;;128.27;58.05;;;16.00;61.70;;;;;;5050784;28;20406;-40
2023/12/19 00:41:53;;;;;;;126.18;57.88;;;16.00;61.60;;;;;;5060238;28;20048;-37
2023/12/19 00:44:19;;;;;;;126.97;58.17;;;16.00;61.80;;;;;;5057074;28;20049;-38
2023/12/19 00:46:44;;;;;;;126.55;58.08;;;16.00;61.90;;;;;;5061232;28;20036;-38
2023/12/19 00:49:11;;;;;;;125.55;57.85;;;16.00;61.90;;;;;;5055744;28;20522;-39
2023/12/19 00:51:37;;;;;;;126.22;57.47;;;15.90;61.80;;;;;;5056622;28;20164;-39
2023/12/19 00:54:02;;;;;;;126.15;57.38;;;15.90;61.80;;;;;;5054997;28;20045;-41
2023/12/19 00:56:29;;;;;;;125.93;57.95;;;15.90;61.90;;;;;;5059866;28;20046;-40
2023/12/19 00:58:54;;;;;;;125.63;57.55;;;15.80;61.90;;;;;;5055983;28;20032;-40
2023/12/19 01:01:24;;;;;;;127.40;58.08;;;15.90;62.00;;;;;;5054523;28;20049;-38
2023/12/19 01:03:50;;;;;;;127.13;58.13;;;15.80;62.10;;;;;;5056432;28;20048;-39
2023/12/19 01:06:15;;;;;;;127.35;58.00;;;15.80;62.10;;;;;;5057719;28;20095;-41
2023/12/19 01:08:41;;;;;;;125.15;57.72;;;15.80;62.10;;;;;;5051438;28;20033;-37
2023/12/19 01:11:09;;;;;;;126.43;57.90;;;15.80;62.20;;;;;;5056339;28;20045;-41
2023/12/19 01:13:35;;;;;;;129.40;57.42;;;15.80;62.10;;;;;;5058086;28;21191;-38
2023/12/19 01:16:01;;;;;;;128.70;58.20;;;15.80;62.90;;;;;;5057951;28;20048;-38
2023/12/19 01:18:27;;;;;;;126.65;58.40;;;15.80;62.20;;;;;;5059048;28;20036;-38
2023/12/19 01:20:53;;;;;;;126.03;58.10;;;15.80;62.20;;;;;;5059585;28;20045;-42
2023/12/19 01:23:19;;;;;;;125.93;58.03;;;15.80;62.20;;;;;;5054168;28;20430;-38
2023/12/19 01:25:44;;;;;;;126.35;57.97;;;15.70;62.20;;;;;;5060961;28;20041;-38
2023/12/19 01:28:11;;;;;;;126.15;57.97;;;15.70;62.20;;;;;;5063430;28;20098;-39
2023/12/19 01:30:37;;;;;;;126.65;58.28;;;15.70;62.20;;;;;;5057213;28;20037;-38
2023/12/19 01:33:03;;;;;;;127.32;58.78;;;15.70;62.40;;;;;;5058802;28;20088;-39
2023/12/19 01:35:29;;;;;;;126.00;57.97;;;15.70;62.40;;;;;;5061275;28;20431;-39
2023/12/19 01:37:54;;;;;;;126.55;58.22;;;15.70;62.40;;;;;;5055990;28;20040;-39
2023/12/19 01:40:20;;;;;;;128.25;58.88;;;15.70;62.40;;;;;;5053301;28;20072;-39
2023/12/19 01:42:46;;;;;;;125.07;57.53;;;15.60;63.20;;;;;;5054197;28;20085;-39
2023/12/19 01:45:13;;;;;;;126.38;58.22;;;15.60;62.40;;;;;;5055616;28;20121;-38
2023/12/19 01:47:44;;;;;;;125.30;58.17;;;15.60;62.50;;;;;;5051781;28;20083;-39
2023/12/19 01:50:12;;;;;;;125.85;57.95;;;15.60;62.60;;;;;;5059249;28;20044;-38
2023/12/19 01:52:43;;;;;;;127.65;58.80;;;15.60;62.60;;;;;;5050421;28;20057;-39
2023/12/19 01:55:10;;;;;;;127.43;58.70;;;15.60;62.60;;;;;;5057785;28;20052;-38
2023/12/19 01:57:36;;;;;;;127.60;58.35;;;15.60;62.60;;;;;;5058721;28;20185;-37
2023/12/19 02:00:03;;;;;;;126.63;58.13;;;15.50;62.50;;;;;;5050892;28;20095;-38
2023/12/19 02:02:29;;;;;;;124.40;57.30;;;15.60;62.60;;;;;;5049737;28;20056;-38
2023/12/19 02:04:58;;;;;;;126.47;58.28;;;15.50;62.60;;;;;;5050516;28;21070;-38
2023/12/19 02:07:24;;;;;;;126.38;58.13;;;15.50;62.80;;;;;;5049971;28;20034;-41
2023/12/19 02:09:51;;;;;;;126.50;58.05;;;15.50;62.70;;;;;;5053515;28;20423;-39
2023/12/19 02:12:17;;;;;;;123.82;57.13;;;15.50;62.70;;;;;;5057726;28;20041;-38
2023/12/19 02:14:44;;;;;;;126.28;58.08;;;15.50;62.80;;;;;;5063831;28;20049;-38
2023/12/19 02:17:11;;;;;;;126.75;57.92;;;15.50;62.80;;;;;;5059051;28;20120;-38
2023/12/19 02:19:44;;;;;;;126.68;57.90;;;15.50;62.80;;;;;;5057583;28;20056;-38
2023/12/19 02:22:10;;;;;;;126.38;57.85;;;15.50;62.80;;;;;;5058002;28;20136;-38
2023/12/19 02:24:36;;;;;;;125.15;57.33;;;15.50;63.00;;;;;;5064136;28;20500;-38
2023/12/19 02:27:02;;;;;;;126.07;58.17;;;15.40;62.90;;;;;;5063557;28;21055;-39
2023/12/19 02:29:28;;;;;;;125.43;58.13;;;15.50;62.80;;;;;;5062147;28;20136;-38
2023/12/19 02:31:54;;;;;;;125.97;58.30;;;15.40;62.90;;;;;;5065321;28;20038;-38
2023/12/19 02:34:19;;;;;;;125.65;57.92;;;15.40;62.90;;;;;;5060640;28;20655;-39
2023/12/19 02:36:45;;;;;;;125.32;58.00;;;15.40;63.10;;;;;;5059600;28;20506;-38
2023/12/19 02:39:10;;;;;;;126.72;57.90;;;15.40;63.00;;;;;;5059736;28;20045;-38
2023/12/19 02:41:36;;;;;;;126.10;57.53;;;15.40;63.10;;;;;;5057457;28;20045;-39
2023/12/19 02:44:02;;;;;;;125.03;57.03;;;15.30;63.00;;;;;;5058741;28;20045;-38
2023/12/19 02:46:28;;;;;;;126.45;58.38;;;15.30;63.00;;;;;;5057493;28;20198;-39
2023/12/19 02:48:53;;;;;;;125.68;58.17;;;15.40;63.10;;;;;;5054351;28;20063;-38
2023/12/19 02:51:20;;;;;;;126.15;57.95;;;15.40;63.10;;;;;;5053270;28;20041;-38
2023/12/19 02:53:46;;;;;;;125.13;58.00;;;15.40;63.20;;;;;;5054492;28;20052;-40
2023/12/19 02:56:11;;;;;;;124.80;57.80;;;15.30;63.10;;;;;;5058605;28;20037;-38
2023/12/19 02:58:37;;;;;;;127.65;58.53;;;15.30;63.00;;;;;;5057191;28;20064;-39
2023/12/19 03:01:06;;;;;;;126.40;58.17;;;15.30;63.10;;;;;;5060814;28;20037;-38
2023/12/19 03:03:32;;;;;;;125.97;57.83;;;15.30;63.20;;;;;;5059486;28;20080;-41
2023/12/19 03:05:58;;;;;;;125.95;58.08;;;15.30;63.20;;;;;;5060471;28;20150;-38
2023/12/19 03:08:24;;;;;;;125.68;57.95;;;15.30;63.20;;;;;;5053568;28;20029;-40
2023/12/19 03:10:49;;;;;;;125.00;57.88;;;15.30;63.20;;;;;;5057242;28;20045;-39
2023/12/19 03:13:15;;;;;;;125.63;58.22;;;15.20;63.10;;;;;;5057633;28;20047;-39
2023/12/19 03:15:40;;;;;;;125.15;57.40;;;15.30;63.20;;;;;;5056731;28;20139;-38
2023/12/19 03:18:06;;;;;;;126.03;58.40;;;15.20;63.30;;;;;;5055465;28;20064;-38
2023/12/19 03:20:32;;;;;;;126.20;57.92;;;15.30;63.20;;;;;;5055761;28;20124;-40
2023/12/19 03:22:57;;;;;;;126.05;58.28;;;15.20;63.30;;;;;;5061422;28;20183;-38
2023/12/19 03:25:26;;;;;;;126.20;57.97;;;15.20;63.30;;;;;;5057519;28;20447;-40
2023/12/19 03:27:51;;;;;;;125.55;58.20;;;15.20;63.30;;;;;;5057665;28;20069;-39
2023/12/19 03:30:17;;;;;;;126.43;58.25;;;15.20;63.50;;;;;;5060398;28;20220;-38
2023/12/19 03:32:43;;;;;;;125.32;58.20;;;15.20;63.30;;;;;;5059314;28;20043;-37
2023/12/19 03:35:10;;;;;;;126.80;58.72;;;15.20;63.40;;;;;;5061344;28;20395;-36
2023/12/19 03:37:36;;;;;;;125.80;58.35;;;15.20;63.50;;;;;;5062294;28;20546;-37
2023/12/19 03:40:02;;;;;;;124.45;57.40;;;15.20;63.50;;;;;;5059079;28;20115;-37
2023/12/19 03:42:27;;;;;;;124.07;57.78;;;15.10;63.40;;;;;;5052705;28;20079;-36
2023/12/19 03:44:53;;;;;;;126.68;58.42;;;15.10;63.50;;;;;;5058511;28;20839;-36
2023/12/19 03:47:19;;;;;;;125.40;57.95;;;15.10;63.50;;;;;;5053458;28;20135;-39
2023/12/19 03:49:44;;;;;;;124.68;57.78;;;15.10;63.50;;;;;;5050680;28;20037;-36
2023/12/19 03:52:10;;;;;;;124.25;57.65;;;15.10;63.50;;;;;;5051393;28;20151;-36
2023/12/19 03:54:36;;;;;;;125.22;57.47;;;15.10;63.60;;;;;;5058634;28;20041;-36
2023/12/19 03:57:01;;;;;;;124.28;57.80;;;15.10;63.60;;;;;;5062492;28;20052;-38
2023/12/19 03:59:27;;;;;;;125.40;58.08;;;15.10;63.50;;;;;;5054760;28;20064;-37
2023/12/19 04:01:52;;;;;;;125.25;57.47;;;15.20;63.60;;;;;;5058348;28;20518;-37
2023/12/19 04:04:18;;;;;;;124.68;57.15;;;15.10;63.70;;;;;;5059129;28;20036;-37
2023/12/19 04:06:44;;;;;;;124.65;57.88;;;15.20;63.70;;;;;;5056562;28;20045;-37
2023/12/19 04:09:10;;;;;;;125.00;58.22;;;15.10;63.80;;;;;;5058733;28;20041;-36
2023/12/19 04:11:36;;;;;;;124.47;57.67;;;15.10;63.80;;;;;;5056950;28;20045;-36
2023/12/19 04:14:03;;;;;;;124.65;57.45;;;15.10;63.90;;;;;;5057031;28;20037;-37
2023/12/19 04:16:28;;;;;;;125.50;57.97;;;15.10;64.10;;;;;;5049617;28;20168;-37
2023/12/19 04:18:54;;;;;;;124.82;57.40;;;15.10;64.00;;;;;;5056324;28;20045;-37
2023/12/19 04:21:20;;;;;;;125.60;58.03;;;15.10;64.10;;;;;;5060615;28;20049;-37
2023/12/19 04:23:45;;;;;;;125.00;57.80;;;15.10;64.10;;;;;;5060711;28;20056;-37
2023/12/19 04:26:19;;;;;;;125.05;57.80;;;15.10;64.10;;;;;;5058558;28;20423;-37
2023/12/19 04:28:45;;;;;;;123.85;57.38;;;15.10;64.20;;;;;;5059141;28;20040;-36
2023/12/19 04:31:11;;;;;;;124.45;57.35;;;15.10;64.30;;;;;;5056492;28;20053;-37
2023/12/19 04:33:36;;;;;;;123.75;57.60;;;15.10;64.30;;;;;;5057978;28;20467;-38
2023/12/19 04:36:03;;;;;;;124.05;57.40;;;15.10;64.20;;;;;;5056850;28;20488;-37
2023/12/19 04:38:29;;;;;;;124.40;57.63;;;15.10;64.20;;;;;;5053302;28;20041;-37
2023/12/19 04:40:54;;;;;;;124.10;57.60;;;15.10;64.30;;;;;;5054299;28;20045;-36
2023/12/19 04:43:20;;;;;;;124.63;57.95;;;15.00;64.30;;;;;;5056349;28;20045;-37
2023/12/19 04:45:46;;;;;;;123.97;56.75;;;15.00;64.30;;;;;;5059900;28;20037;-36
2023/12/19 04:48:12;;;;;;;123.95;57.55;;;15.00;64.40;;;;;;5059878;28;20053;-37
2023/12/19 04:50:38;;;;;;;125.15;58.03;;;15.00;64.40;;;;;;5062736;28;20075;-37
2023/12/19 04:53:04;;;;;;;125.55;57.65;;;15.00;64.60;;;;;;5054858;28;20510;-37
2023/12/19 04:55:29;;;;;;;124.47;57.65;;;15.00;64.50;;;;;;5056994;28;20048;-37
2023/12/19 04:57:55;;;;;;;124.90;57.83;;;15.00;64.50;;;;;;5057623;28;20124;-36
2023/12/19 05:00:21;;;;;;;122.95;56.88;;;15.00;64.40;;;;;;5053790;28;20136;-36
2023/12/19 05:02:46;;;;;;;125.57;57.60;;;15.00;64.40;;;;;;5054734;28;20118;-36
2023/12/19 05:05:12;;;;;;;122.70;57.00;;;15.00;64.60;;;;;;5053446;28;20498;-36
2023/12/19 05:07:38;;;;;;;124.47;57.75;;;15.00;64.60;;;;;;5044314;28;20041;-37
2023/12/19 05:10:04;;;;;;;124.07;57.67;;;15.00;64.40;;;;;;5052298;28;20045;-37
2023/12/19 05:12:30;;;;;;;125.75;57.78;;;14.90;64.50;;;;;;5042087;28;21048;-37
2023/12/19 05:14:55;;;;;;;124.00;56.97;;;14.90;64.50;;;;;;5043462;28;20037;-37
2023/12/19 05:17:21;;;;;;;124.60;57.72;;;15.00;64.70;;;;;;5049119;28;20037;-37
2023/12/19 05:19:47;;;;;;;124.95;57.40;;;15.00;64.70;;;;;;5056457;28;20116;-37
2023/12/19 05:22:12;;;;;;;125.18;57.88;;;15.00;64.60;;;;;;5048209;28;20091;-37
2023/12/19 05:24:41;;;;;;;127.43;57.78;;;14.90;64.60;;;;;;5054800;28;20032;-36
2023/12/19 05:27:07;;;;;;;126.10;58.00;;;14.90;64.70;;;;;;5048570;28;20052;-38
2023/12/19 05:29:32;;;;;;;123.72;57.40;;;14.90;64.60;;;;;;5051104;28;20069;-37
2023/12/19 05:31:58;;;;;;;124.45;57.67;;;14.90;64.60;;;;;;5051422;28;20117;-37
2023/12/19 05:34:24;;;;;;;124.80;57.65;;;14.90;64.80;;;;;;5054821;28;20038;-37
2023/12/19 05:36:50;;;;;;;124.65;57.83;;;14.90;64.60;;;;;;5051621;28;20071;-46
2023/12/19 05:39:17;;;;;;;124.28;58.03;;;14.90;64.80;;;;;;5054609;28;20045;-45
2023/12/19 05:41:43;;;;;;;127.35;57.47;;;14.90;64.80;;;;;;5053532;28;20045;-46
2023/12/19 05:44:11;;;;;;;124.95;57.40;;;14.90;64.70;;;;;;5057987;28;20049;-45
2023/12/19 05:46:38;;;;;;;123.85;57.47;;;14.90;64.80;;;;;;5060492;28;20690;-45
2023/12/19 05:49:04;;;;;;;124.65;56.83;;;14.90;65.50;;;;;;5060088;28;20029;-45
2023/12/19 05:51:30;;;;;;;125.00;57.75;;;14.90;64.80;;;;;;5059666;28;20507;-46
2023/12/19 05:53:58;;;;;;;125.15;58.05;;;14.90;64.80;;;;;;5054388;28;20041;-47
2023/12/19 05:56:24;;;;;;;127.43;58.22;;;14.90;64.80;;;;;;5057252;28;20045;-46
2023/12/19 05:58:50;;;;;;;125.80;57.63;;;14.90;64.80;;;;;;5056716;28;20052;-46
2023/12/19 06:01:15;;;;;;;125.05;57.97;;;14.90;64.80;;;;;;5054279;28;20044;-46
2023/12/19 06:03:41;;;;;;;124.60;57.33;;;14.90;64.70;;;;;;5054669;28;20037;-46
2023/12/19 06:06:07;;;;;;;124.90;57.17;;;14.90;65.50;;;;;;5056651;28;20090;-46
2023/12/19 06:08:32;;;;;;;126.65;58.08;;;14.90;64.80;;;;;;5056601;28;20040;-45
2023/12/19 06:10:58;;;;;;;123.93;57.13;;;14.90;64.90;;;;;;5062359;28;20044;-46
2023/12/19 06:13:24;;;;;;;125.60;57.72;;;14.90;65.20;;;;;;5060301;28;20682;-45
2023/12/19 06:15:49;;;;;;;127.15;57.88;;;14.90;65.10;;;;;;5061716;28;20246;-46
2023/12/19 06:18:16;;;;;;;124.07;57.40;;;14.90;65.10;;;;;;5064896;28;20095;-45
2023/12/19 06:20:42;;;;;;;124.55;57.35;;;14.90;65.40;;;;;;5058591;28;20045;-46
2023/12/19 06:23:09;;;;;;;126.88;57.53;;;14.80;65.50;;;;;;5061817;28;20041;-46
2023/12/19 06:25:34;;;;;;;126.88;57.55;;;14.90;65.60;;;;;;5060872;28;20065;-45
2023/12/19 06:28:00;;;;;;;125.60;57.90;;;14.90;65.70;;;;;;5062019;28;20190;-46
2023/12/19 06:30:26;;;;;;;124.20;57.25;;;14.80;65.60;;;;;;5055657;28;20041;-45
2023/12/19 06:32:51;;;;;;;126.20;57.83;;;14.80;65.80;;;;;;5062622;28;20069;-46
2023/12/19 06:35:17;;;;;;;126.13;57.90;;;14.80;65.70;;;;;;5060369;28;20834;-45
2023/12/19 06:37:42;;;;;;;127.40;57.72;;;14.80;65.70;;;;;;5059769;28;20045;-46
2023/12/19 06:40:09;;;;;;;124.07;57.72;;;14.80;65.80;;;;;;5054125;28;20091;-46
2023/12/19 06:42:34;;;;;;;126.22;57.65;;;14.80;65.70;;;;;;5055389;28;20557;-46
2023/12/19 06:45:00;;;;;;;128.13;57.92;;;14.80;65.90;;;;;;5058916;28;20051;-45
2023/12/19 06:47:28;;;;;;;126.75;57.60;;;14.80;66.00;;;;;;5062679;28;20052;-45
2023/12/19 06:49:53;;;;;;;126.65;58.10;;;14.80;66.20;;;;;;5061660;28;20037;-45
2023/12/19 06:52:20;;;;;;;127.63;58.25;;;14.80;66.10;;;;;;5060339;28;20129;-46
2023/12/19 06:54:46;;;;;;;125.15;57.70;;;14.80;66.10;;;;;;5060323;28;20080;-46
2023/12/19 06:57:12;;;;;;;125.80;57.58;;;14.80;66.20;;;;;;5060210;28;20584;-46
2023/12/19 06:59:38;;;;;;;127.47;58.30;;;14.80;66.10;;;;;;5061613;28;20156;-45
2023/12/19 07:02:04;;;;;;;130.30;58.60;;;14.80;66.10;;;;;;5054131;28;20033;-46
2023/12/19 07:04:31;;;;;;;126.53;58.22;;;14.80;66.10;;;;;;5050140;28;20073;-45
2023/12/19 07:06:57;;;;;;;129.00;58.25;;;14.80;66.10;;;;;;5051346;28;22373;-46
2023/12/19 07:09:22;;;;;;;123.45;57.63;;;14.80;66.10;;;;;;5056408;28;20033;-46
2023/12/19 07:11:48;;;;;;;127.60;57.58;;;14.80;66.10;;;;;;5061245;28;20033;-46
2023/12/19 07:14:14;;;;;;;124.97;56.72;;;14.80;66.10;;;;;;5050918;28;20041;-45
2023/12/19 07:16:39;;;;;;;126.03;56.97;;;14.80;66.10;;;;;;5052328;28;20052;-46
2023/12/19 07:19:05;;;;;;;123.68;56.95;;;14.80;66.90;;;;;;5059018;28;20873;-46
2023/12/19 07:21:35;;;;;;;126.70;57.97;;;14.70;66.10;;;;;;5061034;28;20052;-46
2023/12/19 07:24:01;;;;;;;123.55;57.10;;;14.80;66.10;;;;;;5057350;28;20041;-45
2023/12/19 07:26:28;;;;;;;126.18;57.58;;;14.80;66.10;;;;;;5057357;28;20044;-46
2023/12/19 07:28:57;;;;;;;125.07;57.85;;;14.80;66.20;;;;;;5059270;28;20029;-45
2023/12/19 07:31:27;;;;;;;125.93;57.30;;;14.80;66.20;;;;;;5062805;28;20036;-45
2023/12/19 07:34:00;;;;;;;126.63;57.47;;;14.80;66.20;;;;;;5060048;28;20110;-45
2023/12/19 07:36:26;;;;;;;126.15;57.58;;;14.80;66.30;;;;;;5064620;28;20041;-46
2023/12/19 07:38:53;;;;;;;124.63;57.05;;;14.80;66.20;;;;;;5063567;28;20037;-45
2023/12/19 07:41:19;;;;;;;126.35;57.65;;;14.80;66.10;;;;;;5061454;28;20909;-46
2023/12/19 07:43:45;;;;;;;125.13;57.30;;;14.70;66.00;;;;;;5060552;28;20049;-46
2023/12/19 07:46:11;;;;;;;123.63;57.15;;;14.80;66.10;;;;;;5062616;28;20525;-45
2023/12/19 07:48:37;;;;;;;122.75;56.97;;;14.80;66.10;;;;;;5065643;28;21483;-45
2023/12/19 07:51:03;;;;;;;123.93;57.05;;;14.80;65.90;;;;;;5064401;28;20045;-45
2023/12/19 07:53:32;;;;;;;123.10;57.00;;;14.80;66.00;;;;;;5061291;28;20772;-45
2023/12/19 07:56:03;;;;;;;122.18;56.22;;;14.80;65.90;;;;;;5063453;28;20612;-46
2023/12/19 07:58:29;;;;;;;124.03;56.90;;;14.70;65.90;;;;;;5068207;28;20033;-46
2023/12/19 08:00:55;;;;;;;125.32;56.95;;;14.80;65.90;;;;;;5065238;28;20068;-46
2023/12/19 08:03:28;;;;;;;124.90;56.67;;;14.70;65.80;;;;;;5066658;28;20132;-46
2023/12/19 08:05:56;;;;;;;123.95;56.75;;;14.70;65.90;;;;;;5065842;28;20045;-46
2023/12/19 08:08:25;;;;;;;124.50;57.58;;;14.70;65.80;;;;;;5056446;28;20059;-45
2023/12/19 08:10:51;;;;;;;121.72;56.33;;;14.70;65.80;;;;;;5062505;28;20942;-46
2023/12/19 08:13:19;;;;;;;124.40;56.67;;;14.70;65.70;;;;;;5058328;28;20041;-47
2023/12/19 08:15:48;;;;;;;124.72;56.65;;;14.70;65.70;;;;;;5062069;28;20118;-46
2023/12/19 08:18:14;;;;;;;124.97;56.83;;;14.70;65.70;;;;;;5062810;28;20095;-46
2023/12/19 08:20:41;;;;;;;122.95;56.10;;;14.70;65.70;;;;;;5061931;28;20040;-45
2023/12/19 08:23:07;;;;;;;126.32;57.05;;;14.70;65.70;;;;;;5059983;28;20045;-46
2023/12/19 08:25:33;;;;;;;123.63;56.78;;;14.70;65.70;;;;;;5062848;28;20044;-45
2023/12/19 08:27:59;;;;;;;122.57;56.55;;;14.70;65.60;;;;;;5062534;28;20069;-46
2023/12/19 08:30:27;;;;;;;124.18;56.55;;;14.70;65.60;;;;;;5065439;28;20247;-46
2023/12/19 08:32:54;;;;;;;123.82;56.47;;;14.70;65.60;;;;;;5061679;28;20049;-47
2023/12/19 08:35:20;;;;;;;125.22;56.70;;;14.70;65.60;;;;;;5060445;28;20048;-46
2023/12/19 08:37:46;;;;;;;125.45;56.33;;;14.70;65.50;;;;;;5063167;28;20129;-46
2023/12/19 08:40:12;;;;;;;123.53;56.60;;;14.70;65.60;;;;;;5063309;28;20037;-45
2023/12/19 08:42:40;;;;;;;124.05;56.42;;;14.70;65.60;;;;;;5066178;28;20542;-45
2023/12/19 08:45:06;;;;;;;126.50;56.75;;;14.70;65.60;;;;;;5067012;28;20110;-46
2023/12/19 08:47:31;;;;;;;124.13;56.88;;;14.70;65.60;;;;;;5064800;28;20630;-45
2023/12/19 08:49:59;;;;;;;123.47;56.75;;;14.70;65.60;;;;;;5064957;28;20102;-45
2023/12/19 08:52:26;;;;;;;123.25;56.40;;;14.70;65.60;;;;;;5059490;28;20045;-46
2023/12/19 08:54:52;;;;;;;124.68;56.95;;;14.70;65.60;;;;;;5066345;28;20037;-45
2023/12/19 08:57:18;;;;;;;122.97;56.70;;;14.70;65.70;;;;;;5065538;28;20036;-46
2023/12/19 08:59:43;;;;;;;122.25;56.00;;;14.70;65.60;;;;;;5065796;28;20029;-46
2023/12/19 09:02:10;;;;;;;123.30;56.28;;;14.70;65.60;;;;;;5066642;28;20100;-46
2023/12/19 09:04:36;;;;;;;123.53;57.20;;;14.60;65.60;;;;;;5061009;28;20944;-46
2023/12/19 09:07:02;;;;;;;124.35;57.38;;;14.60;66.40;;;;;;5064032;28;20037;-46
2023/12/19 09:09:28;;;;;;;123.53;56.45;;;14.70;65.70;;;;;;5058776;28;20039;-46
2023/12/19 09:11:56;;;;;;;123.15;56.42;;;14.60;65.60;;;;;;5061222;28;20793;-46
2023/12/19 09:14:22;;;;;;;123.90;56.33;;;14.70;65.70;;;;;;5065101;28;20067;-45
2023/12/19 09:16:49;;;;;;;122.32;55.95;;;14.70;65.70;;;;;;5059261;28;20392;-46
2023/12/19 09:19:16;;;;;;;122.57;56.83;;;14.70;65.50;;;;;;5052235;28;20041;-46
2023/12/19 09:21:42;;;;;;;124.25;56.75;;;14.70;65.50;;;;;;5060256;28;20076;-46
2023/12/19 09:24:07;;;;;;;124.85;56.55;;;14.70;65.50;;;;;;5056315;28;20144;-46
2023/12/19 09:26:33;;;;;;;123.03;56.55;;;14.70;65.60;;;;;;5055550;28;20032;-46
2023/12/19 09:28:59;;;;;;;122.38;56.53;;;14.70;65.70;;;;;;5060268;28;20060;-46
2023/12/19 09:31:24;;;;;;;123.88;56.45;;;14.70;65.70;;;;;;5058053;28;20605;-46
2023/12/19 09:33:50;;;;;;;121.28;56.00;;;14.60;65.80;;;;;;5058276;28;20044;-46
2023/12/19 09:36:24;;;;;;;123.25;56.47;;;14.70;65.80;;;;;;5054665;28;20061;-45
2023/12/19 09:38:50;;;;;;;123.00;56.65;;;14.70;65.80;;;;;;5058427;28;20041;-46
2023/12/19 09:41:17;;;;;;;121.72;55.92;;;14.70;65.80;;;;;;5059407;28;20164;-46
2023/12/19 09:43:43;;;;;;;123.55;56.63;;;14.70;65.80;;;;;;5059088;28;20134;-46
2023/12/19 09:46:10;;;;;;;124.47;56.90;;;14.70;65.80;;;;;;5060463;28;20036;-46
2023/12/19 09:48:37;;;;;;;123.25;55.85;;;14.70;65.90;;;;;;5064673;28;20059;-45
2023/12/19 09:51:04;;;;;;;123.00;56.42;;;14.70;65.90;;;;;;5057955;28;20762;-45
2023/12/19 09:53:39;;;;;;;121.75;55.97;;;14.60;65.90;;;;;;5056604;28;20048;-46
2023/12/19 09:56:06;;;;;;;123.75;56.70;;;14.70;65.90;;;;;;5061994;28;20116;-46
2023/12/19 09:58:33;;;;;;;123.82;56.38;;;14.60;65.80;;;;;;5061101;28;20040;-45
2023/12/19 10:00:59;;;;;;;122.05;56.08;;;14.60;66.00;;;;;;5065870;28;20601;-46
2023/12/19 10:03:28;;;;;;;121.30;55.92;;;14.70;66.00;;;;;;5066112;28;20037;-45
2023/12/19 10:05:56;;;;;;;121.32;56.22;;;14.70;66.00;;;;;;5060431;28;20060;-46
2023/12/19 10:08:21;;;;;;;123.60;55.83;;;14.60;66.00;;;;;;5050144;28;20029;-46
2023/12/19 10:10:55;;;;;;;121.68;55.90;;;14.60;66.00;;;;;;5062864;28;20919;-46
2023/12/19 10:13:32;;;;;;;123.35;56.05;;;14.60;66.00;;;;;;5060461;28;20060;-45
2023/12/19 10:16:06;;;;;;;122.22;56.10;;;14.70;65.90;;;;;;5058836;28;20041;-45
2023/12/19 10:18:32;;;;;;;123.93;55.88;;;14.70;66.00;;;;;;5061607;28;20048;-46
2023/12/19 10:21:08;;;;;;;123.60;57.13;;;14.70;66.00;;;;;;5067868;28;20187;-47
2023/12/19 10:23:34;;;;;;;121.72;55.67;;;14.60;65.90;;;;;;5057211;28;20930;-48
2023/12/19 10:26:00;;;;;;;122.45;56.35;;;14.60;65.90;;;;;;5065163;28;20032;-47
2023/12/19 10:28:26;;;;;;;122.47;56.33;;;14.70;66.00;;;;;;5059809;28;20048;-47
2023/12/19 10:31:17;;;;;;;122.75;55.70;;;14.60;65.90;;;;;;5066433;28;20044;-47
2023/12/19 10:33:48;;;;;;;121.72;55.88;;;14.60;65.90;;;;;;5068327;28;20607;-47
2023/12/19 10:36:29;;;;;;;122.10;55.70;;;14.60;66.00;;;;;;5068741;28;20072;-48
2023/12/19 10:38:56;;;;;;;121.15;55.67;;;14.60;66.00;;;;;;5067740;28;20454;-47
2023/12/19 10:41:22;;;;;;;122.70;56.58;;;14.60;66.60;;;;;;5062423;28;20051;-47
2023/12/19 10:43:53;;;;;;;121.78;55.53;;;14.70;66.00;;;;;;5067921;28;20049;-47
2023/12/19 10:46:24;;;;;;;121.33;55.93;;;14.60;65.90;;;;;;5071818;28;20113;-47
2023/12/19 10:48:53;;;;;;;123.05;55.90;;;14.60;66.10;;;;;;5072135;28;20856;-47
2023/12/19 10:51:27;;;;;;;121.40;55.85;;;14.60;66.20;;;;;;5068594;28;20052;-47
2023/12/19 10:53:59;;;;;;;121.70;55.72;;;14.60;66.20;;;;;;5065234;28;20537;-47
2023/12/19 10:56:34;;;;;;;122.72;56.35;;;14.60;66.10;;;;;;5065523;28;20041;-47
2023/12/19 10:59:04;;;;;;;121.50;55.83;;;14.60;66.10;;;;;;5066044;28;20053;-47
2023/12/19 11:01:40;;;;;;;121.22;55.88;;;14.60;66.10;;;;;;5066655;28;20091;-48
2023/12/19 11:04:20;;;;;;;121.63;56.15;;;14.60;66.10;;;;;;5070873;28;20841;-47
2023/12/19 11:06:50;;;;;;;122.35;56.28;;;14.60;66.10;;;;;;5066210;28;20034;-47
2023/12/19 11:09:20;;;;;;;122.30;55.70;;;14.60;66.20;;;;;;5063060;28;20040;-48
2023/12/19 11:11:46;;;;;;;122.18;55.78;;;14.60;66.20;;;;;;5067430;28;20064;-47
2023/12/19 11:14:13;;;;;;;122.72;56.25;;;14.60;66.20;;;;;;5066494;28;20119;-47
2023/12/19 11:16:46;;;;;;;121.40;55.88;;;14.60;66.10;;;;;;5065964;28;20033;-47
2023/12/19 11:19:53;;;;;;;120.85;55.65;;;14.60;66.20;;;;;;5063837;28;20040;-47
2023/12/19 11:22:25;;;;;;;120.65;55.95;;;14.60;66.20;;;;;;4999525;28;20047;-47
2023/12/19 11:25:22;;;;;;;120.88;55.47;;;14.60;66.10;;;;;;5054620;28;20041;-47
2023/12/19 11:27:55;;;;;;;122.47;56.00;;;14.60;66.20;;;;;;5068277;28;20037;-47
2023/12/19 11:30:32;;;;;;;121.20;55.55;;;14.60;66.30;;;;;;5062643;28;20087;-47
2023/12/19 11:32:58;;;;;;;120.82;55.67;;;14.60;66.30;;;;;;5062531;28;20040;-47
2023/12/19 11:35:29;;;;;;;121.80;56.03;;;14.60;66.30;;;;;;5061096;28;20103;-47
2023/12/19 11:38:13;;;;;;;121.57;55.65;;;14.60;66.40;;;;;;5063064;28;20032;-49
2023/12/19 11:40:45;;;;;;;120.88;55.83;;;14.60;66.30;;;;;;5059064;28;20052;-38
2023/12/19 11:43:31;;;;;;;121.22;55.72;;;14.60;66.40;;;;;;5062665;28;20056;-38
2023/12/19 11:46:02;;;;;;;121.63;55.35;;;14.60;66.30;;;;;;5061414;28;20498;-38
2023/12/19 11:48:51;;;;;;;121.43;55.75;;;14.60;66.30;;;;;;5062911;28;20065;-38
2023/12/19 11:51:41;;;;;;;124.32;55.38;;;14.60;66.40;;;;;;5064225;28;20056;-39
2023/12/19 11:54:10;;;;;;;122.22;55.92;;;14.50;66.40;;;;;;5066640;28;20564;-39
2023/12/19 11:56:38;;;;;;;120.53;55.20;;;14.60;66.50;;;;;;5065608;28;20040;-40
2023/12/19 11:59:03;;;;;;;123.00;55.70;;;14.50;66.60;;;;;;5062913;28;20505;-39
2023/12/19 12:01:40;;;;;;;121.22;55.60;;;14.50;66.50;;;;;;5066685;28;20048;-37
2023/12/19 12:04:07;;;;;;;121.85;55.50;;;14.50;66.50;;;;;;5066844;28;20760;-38
2023/12/19 12:06:33;;;;;;;122.38;55.90;;;14.50;66.40;;;;;;5066666;28;20041;-39
2023/12/19 12:08:59;;;;;;;121.00;55.55;;;14.50;66.50;;;;;;5061788;28;20029;-39
2023/12/19 12:11:26;;;;;;;122.55;56.10;;;14.50;66.50;;;;;;5056650;28;20044;-38
2023/12/19 12:14:03;;;;;;;121.40;55.78;;;14.50;66.50;;;;;;5063696;28;20037;-38
2023/12/19 12:16:39;;;;;;;121.53;55.95;;;14.50;66.40;;;;;;5062832;28;20095;-38
2023/12/19 12:19:16;;;;;;;121.80;55.55;;;14.50;66.50;;;;;;5059215;28;20515;-40